Mikonos, Greece

4:14 AM EEST on September 03, 2014 (GMT +0300)
Syros | Change Station
CLOSE
Current Station
Airport
Location: SYROS,
Elevation: 236 ft
Nearby Weather Stations

Elev 236 ft 37.42 °N, 24.95 °E | Updated 54 minutes ago

Light Rain
Light Rain
73 °F
Feels Like 73 °F
N
16
Wind Variable Wind from South

Today
High -- | Low -- °F
--% Chance of Precip.
Yesterday
High -- | Low -- °F
Precip. -- in
6:50 AM 7:44 PM
First Quarter, 57% visible
Pressure 29.71 in
Visibility -9999.0 miles
Clouds
Dew Point 70 °F
Humidity 88%
Rainfall 0.00 in
Snow Depth Not available.
UV Not available.
Pollen Not available.
Air Quality Not available.
Flu Activity Not available.
METAR LGSO 030020Z AUTO 19014KT 160V230 //// -RA ////// 23/21 Q1006 RE//

More Conditions Fewer Conditions

Pressure 29.71 in
Visibility -9999.0 miles
Clouds
Dew Point 70 °F
Humidity 88%
Rainfall 0.00 in
Snow Depth Not available.
UV Not available.
Pollen Not available.
Air Quality Not available.
Flu Activity Not available.
METAR LGSO 030020Z AUTO 19014KT 160V230 //// -RA ////// 23/21 Q1006 RE//

More Conditions Fewer Conditions

10-Day Weather Forecast

Almanac

Astronomy

Sep. 03, 2014 Rise Set
Actual Time 6:50 AM EEST 7:44 PM EEST
Civil Twilight 6:23 AM EEST 8:11 PM EEST
Nautical Twilight 5:52 AM EEST 8:43 PM EEST
Astronomical Twilight 5:19 AM EEST 9:15 PM EEST
Moon 3:04 PM EEST 12:31 AM EEST
Length of Visible Light 13h 47m
Length of Day
12h 54m
Tomorrow will be 2m 19s shorter.
First Quarter, 57% of the Moon is Illuminated
Sep 2
First Quarter
Sep 8
Full
Sep 15
Last Quarter
Sep 24
New
Oct 1
First Quarter

Yesterday's Extremes

Country Highs Country Lows

Community

WunderPhotos

Upload Photos

1,749,826 photos uploaded!

Nearby

Snow Depth

Not available.

Earthquake Activity

City Distance Mag. Time & Date
No recent earthquake activity has been reported nearby.
Minimum magnitude displayed is 2.5.

Coastal Water Temperatures

Place Temperature
No Stations Reporting

Nearby Weather Stations